sensor_id;sensor_type;location;lat;lon;timestamp;temperature;humidity
39189;DHT22;24915;50.858;4.376;2022-08-19T00:01:29;23.10;99.90
39189;DHT22;24915;50.858;4.376;2022-08-19T00:03:57;23.10;99.90
39189;DHT22;24915;50.858;4.376;2022-08-19T00:06:23;23.00;99.90
39189;DHT22;24915;50.858;4.376;2022-08-19T00:08:48;23.00;99.90
39189;DHT22;24915;50.858;4.376;2022-08-19T00:11:17;23.00;99.90
39189;DHT22;24915;50.858;4.376;2022-08-19T00:13:42;23.00;99.90
39189;DHT22;24915;50.858;4.376;2022-08-19T00:16:09;22.90;99.90
39189;DHT22;24915;50.858;4.376;2022-08-19T00:18:34;22.80;99.90
39189;DHT22;24915;50.858;4.376;2022-08-19T00:21:00;22.80;99.90
39189;DHT22;24915;50.858;4.376;2022-08-19T00:23:26;22.80;99.90
39189;DHT22;24915;50.858;4.376;2022-08-19T00:25:53;22.80;99.90
39189;DHT22;24915;50.858;4.376;2022-08-19T00:28:19;22.70;99.90
39189;DHT22;24915;50.858;4.376;2022-08-19T00:30:46;22.60;99.90
39189;DHT22;24915;50.858;4.376;2022-08-19T00:33:11;22.70;99.90
39189;DHT22;24915;50.858;4.376;2022-08-19T00:35:38;22.70;99.90
39189;DHT22;24915;50.858;4.376;2022-08-19T00:38:05;22.70;99.90
39189;DHT22;24915;50.858;4.376;2022-08-19T00:40:32;22.80;99.90
39189;DHT22;24915;50.858;4.376;2022-08-19T00:42:58;22.70;99.90
39189;DHT22;24915;50.858;4.376;2022-08-19T00:45:26;22.70;99.90
39189;DHT22;24915;50.858;4.376;2022-08-19T00:47:52;22.70;99.90
39189;DHT22;24915;50.858;4.376;2022-08-19T00:50:19;22.60;99.90
39189;DHT22;24915;50.858;4.376;2022-08-19T00:52:47;22.60;99.90
39189;DHT22;24915;50.858;4.376;2022-08-19T00:55:26;22.40;99.90
39189;DHT22;24915;50.858;4.376;2022-08-19T00:58:03;22.30;99.90
39189;DHT22;24915;50.858;4.376;2022-08-19T01:00:33;22.30;99.90
39189;DHT22;24915;50.858;4.376;2022-08-19T01:03:06;22.40;99.90
39189;DHT22;24915;50.858;4.376;2022-08-19T01:05:32;22.40;99.90
39189;DHT22;24915;50.858;4.376;2022-08-19T01:07:59;22.50;99.90
39189;DHT22;24915;50.858;4.376;2022-08-19T01:10:29;22.40;99.90
39189;DHT22;24915;50.858;4.376;2022-08-19T01:12:56;22.40;99.90
39189;DHT22;24915;50.858;4.376;2022-08-19T01:15:27;22.40;99.90
39189;DHT22;24915;50.858;4.376;2022-08-19T01:17:54;22.40;99.90
39189;DHT22;24915;50.858;4.376;2022-08-19T01:20:22;22.20;99.90
39189;DHT22;24915;50.858;4.376;2022-08-19T01:22:54;22.00;99.90
39189;DHT22;24915;50.858;4.376;2022-08-19T01:25:24;21.90;99.90
39189;DHT22;24915;50.858;4.376;2022-08-19T01:27:50;21.90;99.90
39189;DHT22;24915;50.858;4.376;2022-08-19T01:30:24;21.90;99.90
39189;DHT22;24915;50.858;4.376;2022-08-19T01:32:52;21.90;99.90
39189;DHT22;24915;50.858;4.376;2022-08-19T01:35:17;21.90;99.90
39189;DHT22;24915;50.858;4.376;2022-08-19T01:38:00;21.90;99.90
39189;DHT22;24915;50.858;4.376;2022-08-19T01:40:29;21.70;99.90
39189;DHT22;24915;50.858;4.376;2022-08-19T01:42:56;21.70;99.90
39189;DHT22;24915;50.858;4.376;2022-08-19T01:45:24;21.60;99.90
39189;DHT22;24915;50.858;4.376;2022-08-19T01:47:50;21.70;99.90
39189;DHT22;24915;50.858;4.376;2022-08-19T01:50:16;21.60;99.90
39189;DHT22;24915;50.858;4.376;2022-08-19T01:52:43;21.60;99.90
39189;DHT22;24915;50.858;4.376;2022-08-19T01:55:15;21.50;99.90
39189;DHT22;24915;50.858;4.376;2022-08-19T01:57:44;21.60;99.90
39189;DHT22;24915;50.858;4.376;2022-08-19T02:00:14;21.60;99.90
39189;DHT22;24915;50.858;4.376;2022-08-19T02:02:41;21.50;99.90
39189;DHT22;24915;50.858;4.376;2022-08-19T02:05:08;21.40;99.90
39189;DHT22;24915;50.858;4.376;2022-08-19T02:07:35;21.30;99.90
39189;DHT22;24915;50.858;4.376;2022-08-19T02:10:04;21.10;99.90
39189;DHT22;24915;50.858;4.376;2022-08-19T02:12:30;21.10;99.90
39189;DHT22;24915;50.858;4.376;2022-08-19T02:14:55;21.00;99.90
39189;DHT22;24915;50.858;4.376;2022-08-19T02:17:21;21.00;99.90
39189;DHT22;24915;50.858;4.376;2022-08-19T02:19:47;21.10;99.90
39189;DHT22;24915;50.858;4.376;2022-08-19T02:22:14;21.10;99.90
39189;DHT22;24915;50.858;4.376;2022-08-19T02:24:40;21.20;99.90
39189;DHT22;24915;50.858;4.376;2022-08-19T02:27:05;21.20;99.90
39189;DHT22;24915;50.858;4.376;2022-08-19T02:29:31;21.20;99.90
39189;DHT22;24915;50.858;4.376;2022-08-19T02:31:57;21.20;99.90
39189;DHT22;24915;50.858;4.376;2022-08-19T02:34:23;21.00;99.90
39189;DHT22;24915;50.858;4.376;2022-08-19T02:36:51;20.80;99.90
39189;DHT22;24915;50.858;4.376;2022-08-19T02:39:17;20.60;99.90
39189;DHT22;24915;50.858;4.376;2022-08-19T02:41:43;20.40;99.90
39189;DHT22;24915;50.858;4.376;2022-08-19T02:44:08;20.40;99.90
39189;DHT22;24915;50.858;4.376;2022-08-19T02:46:34;20.40;99.90
39189;DHT22;24915;50.858;4.376;2022-08-19T02:49:05;20.40;99.90
39189;DHT22;24915;50.858;4.376;2022-08-19T02:51:37;20.20;99.90
39189;DHT22;24915;50.858;4.376;2022-08-19T02:54:05;19.90;99.90
39189;DHT22;24915;50.858;4.376;2022-08-19T02:56:33;19.70;99.90
39189;DHT22;24915;50.858;4.376;2022-08-19T02:58:59;19.60;99.90
39189;DHT22;24915;50.858;4.376;2022-08-19T03:01:30;19.70;99.90
39189;DHT22;24915;50.858;4.376;2022-08-19T03:03:59;19.70;99.90
39189;DHT22;24915;50.858;4.376;2022-08-19T03:06:25;19.70;99.90
39189;DHT22;24915;50.858;4.376;2022-08-19T03:11:57;19.60;99.90
39189;DHT22;24915;50.858;4.376;2022-08-19T03:14:23;19.50;99.90
39189;DHT22;24915;50.858;4.376;2022-08-19T03:19:24;19.40;99.90
39189;DHT22;24915;50.858;4.376;2022-08-19T17:18:39;23.10;99.90
39189;DHT22;24915;50.858;4.376;2022-08-19T17:21:05;23.10;99.90
39189;DHT22;24915;50.858;4.376;2022-08-19T17:23:30;23.10;99.90
39189;DHT22;24915;50.858;4.376;2022-08-19T17:25:56;23.10;99.90
39189;DHT22;24915;50.858;4.376;2022-08-19T17:28:26;23.10;99.90
39189;DHT22;24915;50.858;4.376;2022-08-19T17:30:52;23.10;99.90
39189;DHT22;24915;50.858;4.376;2022-08-19T17:33:18;23.20;99.90
39189;DHT22;24915;50.858;4.376;2022-08-19T17:35:44;23.20;99.90
39189;DHT22;24915;50.858;4.376;2022-08-19T17:38:14;23.20;99.90
39189;DHT22;24915;50.858;4.376;2022-08-19T17:40:42;23.10;99.90
39189;DHT22;24915;50.858;4.376;2022-08-19T17:43:09;23.10;99.90
39189;DHT22;24915;50.858;4.376;2022-08-19T17:45:37;22.90;99.90
39189;DHT22;24915;50.858;4.376;2022-08-19T17:48:03;22.70;99.90
39189;DHT22;24915;50.858;4.376;2022-08-19T17:50:30;22.60;99.90
39189;DHT22;24915;50.858;4.376;2022-08-19T17:52:56;22.50;99.90
39189;DHT22;24915;50.858;4.376;2022-08-19T17:55:22;22.20;99.90
39189;DHT22;24915;50.858;4.376;2022-08-19T17:57:49;22.20;99.90
39189;DHT22;24915;50.858;4.376;2022-08-19T18:00:16;22.10;99.90
39189;DHT22;24915;50.858;4.376;2022-08-19T18:02:56;22.00;99.90
39189;DHT22;24915;50.858;4.376;2022-08-19T18:05:28;22.00;99.90
39189;DHT22;24915;50.858;4.376;2022-08-19T18:07:55;21.90;99.90
39189;DHT22;24915;50.858;4.376;2022-08-19T18:10:23;21.90;99.90
39189;DHT22;24915;50.858;4.376;2022-08-19T18:12:51;21.80;99.90
39189;DHT22;24915;50.858;4.376;2022-08-19T18:15:17;21.80;99.90
39189;DHT22;24915;50.858;4.376;2022-08-19T18:17:43;21.80;99.90
39189;DHT22;24915;50.858;4.376;2022-08-19T18:20:11;21.70;99.90
39189;DHT22;24915;50.858;4.376;2022-08-19T18:22:40;21.70;99.90
39189;DHT22;24915;50.858;4.376;2022-08-19T18:25:11;21.70;99.90
39189;DHT22;24915;50.858;4.376;2022-08-19T18:27:37;21.70;99.90
39189;DHT22;24915;50.858;4.376;2022-08-19T18:30:05;21.60;99.90
39189;DHT22;24915;50.858;4.376;2022-08-19T18:32:32;21.70;99.90
39189;DHT22;24915;50.858;4.376;2022-08-19T18:35:06;21.70;99.90
39189;DHT22;24915;50.858;4.376;2022-08-19T18:37:34;21.70;99.90
39189;DHT22;24915;50.858;4.376;2022-08-19T18:40:00;21.60;99.90
39189;DHT22;24915;50.858;4.376;2022-08-19T18:42:45;21.70;99.90
39189;DHT22;24915;50.858;4.376;2022-08-19T18:45:30;21.70;99.90
39189;DHT22;24915;50.858;4.376;2022-08-19T18:48:14;21.60;99.90
39189;DHT22;24915;50.858;4.376;2022-08-19T18:50:59;21.60;99.90
39189;DHT22;24915;50.858;4.376;2022-08-19T18:53:28;21.60;99.90
39189;DHT22;24915;50.858;4.376;2022-08-19T18:55:54;21.60;99.90
39189;DHT22;24915;50.858;4.376;2022-08-19T18:58:22;21.60;99.90
39189;DHT22;24915;50.858;4.376;2022-08-19T19:00:48;21.70;99.90
39189;DHT22;24915;50.858;4.376;2022-08-19T19:03:14;21.70;99.90
39189;DHT22;24915;50.858;4.376;2022-08-19T19:05:39;21.60;99.90
39189;DHT22;24915;50.858;4.376;2022-08-19T19:08:05;21.60;99.90
39189;DHT22;24915;50.858;4.376;2022-08-19T19:10:32;21.60;99.90
39189;DHT22;24915;50.858;4.376;2022-08-19T19:12:57;21.50;99.90
39189;DHT22;24915;50.858;4.376;2022-08-19T19:15:25;21.50;99.90
39189;DHT22;24915;50.858;4.376;2022-08-19T19:17:52;21.50;99.90
39189;DHT22;24915;50.858;4.376;2022-08-19T19:20:18;21.50;99.90
39189;DHT22;24915;50.858;4.376;2022-08-19T19:22:44;21.50;99.90
39189;DHT22;24915;50.858;4.376;2022-08-19T19:25:10;21.50;99.90
39189;DHT22;24915;50.858;4.376;2022-08-19T19:27:36;21.40;99.90
39189;DHT22;24915;50.858;4.376;2022-08-19T19:30:05;21.50;99.90
39189;DHT22;24915;50.858;4.376;2022-08-19T19:32:31;21.40;99.90
39189;DHT22;24915;50.858;4.376;2022-08-19T19:35:06;21.50;99.90
39189;DHT22;24915;50.858;4.376;2022-08-19T19:37:35;21.50;99.90
39189;DHT22;24915;50.858;4.376;2022-08-19T19:40:00;21.50;99.90
39189;DHT22;24915;50.858;4.376;2022-08-19T19:42:26;21.50;99.90
39189;DHT22;24915;50.858;4.376;2022-08-19T19:44:54;21.50;99.90
39189;DHT22;24915;50.858;4.376;2022-08-19T19:47:20;21.50;99.90
39189;DHT22;24915;50.858;4.376;2022-08-19T19:49:49;21.50;99.90
39189;DHT22;24915;50.858;4.376;2022-08-19T19:52:20;21.50;99.90
39189;DHT22;24915;50.858;4.376;2022-08-19T19:54:46;21.50;99.90
39189;DHT22;24915;50.858;4.376;2022-08-19T19:57:11;21.40;99.90
39189;DHT22;24915;50.858;4.376;2022-08-19T19:59:37;21.40;99.90
39189;DHT22;24915;50.858;4.376;2022-08-19T20:02:03;21.40;99.90
39189;DHT22;24915;50.858;4.376;2022-08-19T20:04:30;21.30;99.90
39189;DHT22;24915;50.858;4.376;2022-08-19T20:06:55;21.30;99.90
39189;DHT22;24915;50.858;4.376;2022-08-19T20:09:21;21.30;99.90
39189;DHT22;24915;50.858;4.376;2022-08-19T20:11:53;21.30;99.90
39189;DHT22;24915;50.858;4.376;2022-08-19T20:14:27;21.20;99.90
39189;DHT22;24915;50.858;4.376;2022-08-19T20:16:54;21.30;99.90
39189;DHT22;24915;50.858;4.376;2022-08-19T20:19:24;21.30;99.90
39189;DHT22;24915;50.858;4.376;2022-08-19T20:21:51;21.20;99.90
39189;DHT22;24915;50.858;4.376;2022-08-19T20:24:19;21.20;99.90
39189;DHT22;24915;50.858;4.376;2022-08-19T20:26:46;21.20;99.90
39189;DHT22;24915;50.858;4.376;2022-08-19T20:29:14;21.20;99.90
39189;DHT22;24915;50.858;4.376;2022-08-19T20:31:41;21.20;99.90
39189;DHT22;24915;50.858;4.376;2022-08-19T20:34:07;21.20;99.90
39189;DHT22;24915;50.858;4.376;2022-08-19T20:36:34;21.30;99.90
39189;DHT22;24915;50.858;4.376;2022-08-19T20:39:02;21.30;99.90
39189;DHT22;24915;50.858;4.376;2022-08-19T20:41:28;21.20;99.90
39189;DHT22;24915;50.858;4.376;2022-08-19T20:43:55;21.20;99.90
39189;DHT22;24915;50.858;4.376;2022-08-19T20:46:20;21.20;99.90
39189;DHT22;24915;50.858;4.376;2022-08-19T20:48:46;21.20;99.90
39189;DHT22;24915;50.858;4.376;2022-08-19T20:51:12;21.10;99.90
39189;DHT22;24915;50.858;4.376;2022-08-19T20:53:39;21.00;99.90
39189;DHT22;24915;50.858;4.376;2022-08-19T20:56:05;21.00;99.90
39189;DHT22;24915;50.858;4.376;2022-08-19T20:58:32;20.90;99.90
39189;DHT22;24915;50.858;4.376;2022-08-19T21:00:59;20.90;99.90
39189;DHT22;24915;50.858;4.376;2022-08-19T21:03:28;20.90;99.90
39189;DHT22;24915;50.858;4.376;2022-08-19T21:05:55;20.90;99.90
39189;DHT22;24915;50.858;4.376;2022-08-19T21:08:22;20.90;99.90
39189;DHT22;24915;50.858;4.376;2022-08-19T21:10:49;20.90;99.90
39189;DHT22;24915;50.858;4.376;2022-08-19T21:13:17;20.90;99.90
39189;DHT22;24915;50.858;4.376;2022-08-19T21:15:43;20.90;99.90
39189;DHT22;24915;50.858;4.376;2022-08-19T21:18:10;20.90;99.90
39189;DHT22;24915;50.858;4.376;2022-08-19T21:20:37;20.80;99.90
39189;DHT22;24915;50.858;4.376;2022-08-19T21:23:04;20.70;99.90
39189;DHT22;24915;50.858;4.376;2022-08-19T21:25:30;20.70;99.90
39189;DHT22;24915;50.858;4.376;2022-08-19T21:27:56;20.70;99.90
39189;DHT22;24915;50.858;4.376;2022-08-19T21:30:21;20.70;99.90
39189;DHT22;24915;50.858;4.376;2022-08-19T21:32:47;20.60;99.90
39189;DHT22;24915;50.858;4.376;2022-08-19T21:35:13;20.60;99.90
39189;DHT22;24915;50.858;4.376;2022-08-19T21:37:38;20.50;99.90
39189;DHT22;24915;50.858;4.376;2022-08-19T21:40:06;20.50;99.90
39189;DHT22;24915;50.858;4.376;2022-08-19T21:42:31;20.50;99.90
39189;DHT22;24915;50.858;4.376;2022-08-19T21:44:57;20.40;99.90
39189;DHT22;24915;50.858;4.376;2022-08-19T21:47:23;20.50;99.90
39189;DHT22;24915;50.858;4.376;2022-08-19T21:49:49;20.40;99.90
39189;DHT22;24915;50.858;4.376;2022-08-19T21:52:23;20.50;99.90
39189;DHT22;24915;50.858;4.376;2022-08-19T21:54:49;20.40;99.90
39189;DHT22;24915;50.858;4.376;2022-08-19T21:57:15;20.30;99.90
39189;DHT22;24915;50.858;4.376;2022-08-19T21:59:41;20.30;99.90
39189;DHT22;24915;50.858;4.376;2022-08-19T22:02:07;20.30;99.90
39189;DHT22;24915;50.858;4.376;2022-08-19T22:04:37;20.40;99.90
39189;DHT22;24915;50.858;4.376;2022-08-19T22:07:06;20.40;99.90
39189;DHT22;24915;50.858;4.376;2022-08-19T22:09:38;20.40;99.90
39189;DHT22;24915;50.858;4.376;2022-08-19T22:12:05;20.40;99.90
39189;DHT22;24915;50.858;4.376;2022-08-19T22:14:35;20.40;99.90
39189;DHT22;24915;50.858;4.376;2022-08-19T22:17:00;20.40;99.90
39189;DHT22;24915;50.858;4.376;2022-08-19T22:19:27;20.40;99.90
39189;DHT22;24915;50.858;4.376;2022-08-19T22:21:56;20.40;99.90
39189;DHT22;24915;50.858;4.376;2022-08-19T22:24:22;20.40;99.90
39189;DHT22;24915;50.858;4.376;2022-08-19T22:26:48;20.40;99.90
39189;DHT22;24915;50.858;4.376;2022-08-19T22:29:14;20.40;99.90
39189;DHT22;24915;50.858;4.376;2022-08-19T22:31:41;20.40;99.90
39189;DHT22;24915;50.858;4.376;2022-08-19T22:34:07;20.40;99.90
39189;DHT22;24915;50.858;4.376;2022-08-19T22:36:32;20.40;99.90
39189;DHT22;24915;50.858;4.376;2022-08-19T22:38:59;20.40;99.90
39189;DHT22;24915;50.858;4.376;2022-08-19T22:41:25;20.40;99.90
39189;DHT22;24915;50.858;4.376;2022-08-19T22:43:52;20.30;99.90
39189;DHT22;24915;50.858;4.376;2022-08-19T22:46:18;20.20;99.90
39189;DHT22;24915;50.858;4.376;2022-08-19T22:48:44;20.10;99.90
39189;DHT22;24915;50.858;4.376;2022-08-19T22:51:10;20.10;99.90
39189;DHT22;24915;50.858;4.376;2022-08-19T22:53:54;20.10;99.90
39189;DHT22;24915;50.858;4.376;2022-08-19T22:56:20;20.00;99.90
39189;DHT22;24915;50.858;4.376;2022-08-19T22:58:46;20.10;99.90
39189;DHT22;24915;50.858;4.376;2022-08-19T23:01:14;20.00;99.90
39189;DHT22;24915;50.858;4.376;2022-08-19T23:03:40;20.00;99.90
39189;DHT22;24915;50.858;4.376;2022-08-19T23:06:06;20.00;99.90
39189;DHT22;24915;50.858;4.376;2022-08-19T23:08:32;19.90;99.90
39189;DHT22;24915;50.858;4.376;2022-08-19T23:10:58;19.90;99.90
39189;DHT22;24915;50.858;4.376;2022-08-19T23:13:24;19.90;99.90
39189;DHT22;24915;50.858;4.376;2022-08-19T23:15:50;19.80;99.90
39189;DHT22;24915;50.858;4.376;2022-08-19T23:18:15;19.80;99.90
39189;DHT22;24915;50.858;4.376;2022-08-19T23:20:42;19.80;99.90
39189;DHT22;24915;50.858;4.376;2022-08-19T23:23:12;19.80;99.90
39189;DHT22;24915;50.858;4.376;2022-08-19T23:25:39;19.70;99.90
39189;DHT22;24915;50.858;4.376;2022-08-19T23:28:05;19.70;99.90
39189;DHT22;24915;50.858;4.376;2022-08-19T23:30:51;19.60;99.90
39189;DHT22;24915;50.858;4.376;2022-08-19T23:33:22;19.50;99.90
39189;DHT22;24915;50.858;4.376;2022-08-19T23:36:05;19.50;99.90
39189;DHT22;24915;50.858;4.376;2022-08-19T23:38:31;19.40;99.90
39189;DHT22;24915;50.858;4.376;2022-08-19T23:40:59;19.30;99.90
39189;DHT22;24915;50.858;4.376;2022-08-19T23:43:26;19.30;99.90
39189;DHT22;24915;50.858;4.376;2022-08-19T23:45:57;19.30;99.90
39189;DHT22;24915;50.858;4.376;2022-08-19T23:48:23;19.20;99.90
39189;DHT22;24915;50.858;4.376;2022-08-19T23:50:50;19.20;99.90
39189;DHT22;24915;50.858;4.376;2022-08-19T23:53:16;19.10;99.90
39189;DHT22;24915;50.858;4.376;2022-08-19T23:55:44;19.00;99.90
39189;DHT22;24915;50.858;4.376;2022-08-19T23:58:11;19.00;99.90
